Time;durP1;ratioP1;P1;durP2;ratioP2;P2;SDS_P1;SDS_P2;PMS_P1;PMS_P2;Temp;Humidity;BMP_temperature;BMP_pressure;BME280_temperature;BME280_humidity;BME280_pressure;Samples;Min_cycle;Max_cycle;Signal;HPM_P1;HPM_P2
2021/06/30 00:02:13;;;;;;;28.77;15.47;;;15.60;96.90;;;;;;5093695;28;20051;-66
2021/06/30 00:04:39;;;;;;;24.73;15.57;;;15.60;96.90;;;;;;5093924;28;20093;-66
2021/06/30 00:07:07;;;;;;;31.43;15.67;;;15.60;96.90;;;;;;5092954;28;20101;-66
2021/06/30 00:09:32;;;;;;;25.10;14.27;;;15.60;96.90;;;;;;5093687;28;20080;-67
2021/06/30 00:11:58;;;;;;;28.47;16.30;;;15.70;96.90;;;;;;5093857;28;20054;-66
2021/06/30 00:14:25;;;;;;;25.53;14.97;;;15.60;96.80;;;;;;5092790;28;20052;-66
2021/06/30 00:16:51;;;;;;;31.10;16.60;;;15.60;96.80;;;;;;5093714;28;20059;-66
2021/06/30 00:19:18;;;;;;;32.13;16.47;;;15.60;96.80;;;;;;5093650;28;20378;-66
2021/06/30 00:21:44;;;;;;;30.30;17.00;;;15.60;96.80;;;;;;5092854;28;20059;-67
2021/06/30 00:24:10;;;;;;;34.10;16.93;;;15.60;96.80;;;;;;5093590;28;20064;-67
2021/06/30 00:26:37;;;;;;;38.23;17.57;;;15.60;96.80;;;;;;5093607;28;20052;-66
2021/06/30 00:29:08;;;;;;;30.13;18.83;;;15.60;96.80;;;;;;5092518;28;20149;-66
2021/06/30 00:31:34;;;;;;;29.58;18.20;;;15.60;96.80;;;;;;5093455;28;20097;-66
2021/06/30 00:34:02;;;;;;;28.63;17.77;;;15.60;96.80;;;;;;5093504;28;20048;-65
2021/06/30 00:36:31;;;;;;;36.13;17.70;;;15.60;96.80;;;;;;5092225;28;20636;-66
2021/06/30 00:38:57;;;;;;;29.77;15.90;;;15.60;96.70;;;;;;5093398;28;20178;-66
2021/06/30 00:41:23;;;;;;;27.17;15.63;;;15.50;96.60;;;;;;5093126;28;20055;-67
2021/06/30 00:43:49;;;;;;;36.87;16.30;;;15.60;96.60;;;;;;5092594;28;20048;-67
2021/06/30 00:46:14;;;;;;;32.50;15.70;;;15.60;96.60;;;;;;5092728;28;20075;-66
2021/06/30 00:48:40;;;;;;;29.77;15.07;;;15.60;96.60;;;;;;5093076;28;20052;-66
2021/06/30 00:51:06;;;;;;;25.00;14.07;;;15.60;96.60;;;;;;5092405;28;20047;-66
2021/06/30 00:53:32;;;;;;;23.97;15.07;;;15.60;96.60;;;;;;5092772;28;20052;-66
2021/06/30 00:55:58;;;;;;;24.83;14.13;;;15.60;96.70;;;;;;5092205;28;20599;-67
2021/06/30 00:58:24;;;;;;;28.13;15.87;;;15.60;97.00;;;;;;5092428;28;20515;-67
2021/06/30 01:00:50;;;;;;;27.93;14.90;;;15.60;96.60;;;;;;5092870;28;20048;-67
2021/06/30 01:03:16;;;;;;;32.90;15.83;;;15.50;96.50;;;;;;5091797;28;20099;-67
2021/06/30 01:05:42;;;;;;;30.40;15.60;;;15.50;96.60;;;;;;5092896;28;20052;-67
2021/06/30 01:08:08;;;;;;;29.60;15.63;;;15.50;96.60;;;;;;5093054;28;20442;-67
2021/06/30 01:10:34;;;;;;;24.43;13.33;;;15.50;96.70;;;;;;5091940;28;20051;-67
2021/06/30 01:13:03;;;;;;;31.07;16.53;;;15.50;96.70;;;;;;5092853;28;20389;-67
2021/06/30 01:15:31;;;;;;;29.33;14.45;;;15.50;96.80;;;;;;5092524;28;20075;-67
2021/06/30 01:17:56;;;;;;;27.37;15.53;;;15.50;96.80;;;;;;5091997;28;20079;-67
2021/06/30 01:20:22;;;;;;;28.13;16.93;;;15.50;96.90;;;;;;5092478;28;20047;-67
2021/06/30 01:23:07;;;;;;;29.23;15.47;;;15.50;97.00;;;;;;5092693;28;20101;-67
2021/06/30 01:25:33;;;;;;;30.57;16.27;;;15.50;97.00;;;;;;5091433;28;20079;-67
2021/06/30 01:27:59;;;;;;;26.17;17.13;;;15.50;97.00;;;;;;5092291;28;20079;-67
2021/06/30 01:30:24;;;;;;;28.60;17.07;;;15.50;97.00;;;;;;5092323;28;20044;-67
2021/06/30 01:32:50;;;;;;;25.00;15.37;;;15.50;96.90;;;;;;5091949;28;20469;-67
2021/06/30 01:35:25;;;;;;;31.50;17.63;;;15.50;96.90;;;;;;5092201;28;20050;-67
2021/06/30 01:37:51;;;;;;;26.53;16.77;;;15.50;97.00;;;;;;5092354;28;20073;-67
2021/06/30 01:40:18;;;;;;;29.67;17.30;;;15.50;97.00;;;;;;5091149;28;20421;-67
2021/06/30 01:42:51;;;;;;;28.00;16.30;;;15.40;96.90;;;;;;5092003;28;20382;-67
2021/06/30 01:45:17;;;;;;;28.03;16.77;;;15.40;96.90;;;;;;5091385;28;20051;-67
2021/06/30 01:47:43;;;;;;;26.80;16.50;;;15.40;96.90;;;;;;5091980;28;20485;-66
2021/06/30 01:50:10;;;;;;;26.03;14.87;;;15.30;96.90;;;;;;5091272;28;20055;-66
2021/06/30 01:52:36;;;;;;;26.40;15.83;;;15.30;97.00;;;;;;5091248;28;20089;-66
2021/06/30 01:55:04;;;;;;;24.30;14.70;;;15.20;96.90;;;;;;5092152;28;20119;-67
2021/06/30 01:57:42;;;;;;;27.83;16.07;;;15.20;97.00;;;;;;5092082;28;20052;-67
2021/06/30 02:00:09;;;;;;;32.33;17.23;;;15.20;97.10;;;;;;5091190;28;20484;-66
2021/06/30 02:02:35;;;;;;;30.60;16.37;;;15.10;97.10;;;;;;5092030;28;20044;-67
2021/06/30 02:05:07;;;;;;;28.50;16.83;;;15.00;97.20;;;;;;5091942;28;20048;-67
2021/06/30 02:07:38;;;;;;;30.93;16.53;;;15.00;97.20;;;;;;5091044;28;20044;-67
2021/06/30 02:10:06;;;;;;;33.97;17.50;;;15.00;97.30;;;;;;5091961;28;20134;-67
2021/06/30 02:12:35;;;;;;;36.00;16.87;;;14.90;97.40;;;;;;5092059;28;20511;-68
2021/06/30 02:15:02;;;;;;;30.87;18.43;;;14.90;97.40;;;;;;5091274;28;20109;-67
2021/06/30 02:17:36;;;;;;;29.00;16.50;;;14.90;97.40;;;;;;5091998;28;20048;-67
2021/06/30 02:20:10;;;;;;;33.83;17.93;;;14.90;97.50;;;;;;5091633;28;20052;-67
2021/06/30 02:22:38;;;;;;;35.30;17.50;;;14.90;97.60;;;;;;5091228;28;20101;-68
2021/06/30 02:25:09;;;;;;;31.47;17.87;;;14.80;97.60;;;;;;5092228;28;20076;-68
2021/06/30 02:27:36;;;;;;;28.85;17.77;;;14.80;97.60;;;;;;5090994;28;20059;-68
2021/06/30 02:30:07;;;;;;;36.63;18.27;;;14.80;97.60;;;;;;5092008;28;20052;-68
2021/06/30 02:32:33;;;;;;;37.70;18.73;;;14.80;97.70;;;;;;5091538;28;20052;-68
2021/06/30 02:34:59;;;;;;;32.40;19.27;;;14.80;97.70;;;;;;5090979;28;20101;-68
2021/06/30 02:37:24;;;;;;;35.60;18.63;;;14.80;97.80;;;;;;5091486;28;20439;-68
2021/06/30 02:39:50;;;;;;;36.03;18.93;;;14.80;97.80;;;;;;5091682;28;20048;-67
2021/06/30 02:42:16;;;;;;;32.30;17.83;;;14.90;97.90;;;;;;5090588;28;20067;-68
2021/06/30 02:44:42;;;;;;;36.60;17.83;;;14.80;97.90;;;;;;5091462;28;20412;-67
2021/06/30 02:47:07;;;;;;;32.97;18.27;;;14.80;97.90;;;;;;5091462;28;20052;-67
2021/06/30 02:49:33;;;;;;;29.33;18.00;;;14.70;97.90;;;;;;5090386;28;20132;-66
2021/06/30 02:51:59;;;;;;;32.87;18.57;;;14.70;97.90;;;;;;5091736;28;20161;-67
2021/06/30 02:54:25;;;;;;;29.87;18.20;;;14.70;98.00;;;;;;5091300;28;20044;-68
2021/06/30 02:56:52;;;;;;;31.07;17.83;;;14.70;98.00;;;;;;5090952;28;20412;-68
2021/06/30 02:59:17;;;;;;;27.93;16.57;;;14.70;98.00;;;;;;5091235;28;20051;-68
2021/06/30 03:01:43;;;;;;;34.70;17.87;;;14.70;98.10;;;;;;5093450;28;20052;-68
2021/06/30 03:04:09;;;;;;;32.87;17.57;;;14.70;98.10;;;;;;5093926;28;20079;-68
2021/06/30 03:06:35;;;;;;;31.57;17.80;;;14.70;98.10;;;;;;5095209;28;20048;-69
2021/06/30 03:09:00;;;;;;;36.80;16.47;;;14.70;98.10;;;;;;5095267;28;20101;-68
2021/06/30 03:11:26;;;;;;;27.03;17.80;;;14.70;98.20;;;;;;5093879;28;20048;-68
2021/06/30 03:13:52;;;;;;;28.40;18.20;;;14.70;98.20;;;;;;5094772;28;20050;-68
2021/06/30 03:16:17;;;;;;;36.07;18.23;;;14.70;98.20;;;;;;5094548;28;20125;-67
2021/06/30 03:18:43;;;;;;;27.20;16.67;;;14.70;98.30;;;;;;5094113;28;20047;-68
2021/06/30 03:21:09;;;;;;;24.13;16.20;;;14.70;98.30;;;;;;5094735;28;20060;-68
2021/06/30 03:23:36;;;;;;;27.17;16.87;;;14.70;98.30;;;;;;5094425;28;20346;-68
2021/06/30 03:26:01;;;;;;;28.27;16.17;;;14.70;98.20;;;;;;5093771;28;20080;-68
2021/06/30 03:28:27;;;;;;;27.47;17.07;;;14.70;98.30;;;;;;5094141;28;20079;-68
2021/06/30 03:30:53;;;;;;;27.10;17.10;;;14.60;98.30;;;;;;5093939;28;20048;-67
2021/06/30 03:33:18;;;;;;;28.03;17.33;;;14.70;98.30;;;;;;5094057;28;20059;-67
2021/06/30 03:35:44;;;;;;;32.87;18.93;;;14.70;98.40;;;;;;5094397;28;20043;-67
2021/06/30 03:38:09;;;;;;;38.70;21.10;;;14.60;98.30;;;;;;5093365;28;20105;-68
2021/06/30 03:40:35;;;;;;;30.97;19.50;;;14.60;98.30;;;;;;5094281;28;20086;-68
2021/06/30 03:43:01;;;;;;;34.47;20.03;;;14.60;98.30;;;;;;5094651;28;20051;-68
2021/06/30 03:45:26;;;;;;;37.07;20.60;;;14.70;98.40;;;;;;5093476;28;20059;-68
2021/06/30 03:47:52;;;;;;;30.50;18.77;;;14.70;98.40;;;;;;5094037;28;20409;-68
2021/06/30 03:50:17;;;;;;;34.63;19.47;;;14.60;98.30;;;;;;5094228;28;20048;-68
2021/06/30 03:52:43;;;;;;;29.07;17.47;;;14.60;98.30;;;;;;5093710;28;20131;-68
2021/06/30 03:55:09;;;;;;;28.87;17.67;;;14.50;98.20;;;;;;5093846;28;20504;-68
2021/06/30 03:57:35;;;;;;;26.83;17.00;;;14.50;98.20;;;;;;5094249;28;20047;-68
2021/06/30 04:00:05;;;;;;;29.37;18.63;;;14.50;98.20;;;;;;5093360;28;20545;-68
2021/06/30 04:02:31;;;;;;;34.63;17.70;;;14.50;98.20;;;;;;5093604;28;20077;-68
2021/06/30 04:04:56;;;;;;;34.00;17.40;;;14.40;98.20;;;;;;5094187;28;20044;-68
2021/06/30 04:07:22;;;;;;;28.93;18.10;;;14.40;98.30;;;;;;5093034;28;20055;-67
2021/06/30 04:09:48;;;;;;;34.13;18.07;;;14.40;98.30;;;;;;5093986;28;20109;-67
2021/06/30 04:12:14;;;;;;;29.83;18.27;;;14.40;98.30;;;;;;5093030;28;20366;-68
2021/06/30 04:14:39;;;;;;;33.40;18.23;;;14.40;98.70;;;;;;5093138;28;20055;-68
2021/06/30 04:17:05;;;;;;;36.03;17.50;;;14.40;98.30;;;;;;5093678;28;20471;-67
2021/06/30 04:19:30;;;;;;;27.00;16.83;;;14.40;98.30;;;;;;5093472;28;20457;-67
2021/06/30 04:21:56;;;;;;;30.67;18.07;;;14.40;98.30;;;;;;5093048;28;20051;-67
2021/06/30 04:24:22;;;;;;;29.90;18.03;;;14.40;98.30;;;;;;5093109;28;20139;-68
2021/06/30 04:26:47;;;;;;;33.20;18.47;;;14.50;98.30;;;;;;5093388;28;20044;-68
2021/06/30 04:29:13;;;;;;;32.40;18.70;;;14.50;98.30;;;;;;5092651;28;20064;-68
2021/06/30 04:31:39;;;;;;;30.07;18.23;;;14.50;98.40;;;;;;5093398;28;20149;-67
2021/06/30 04:34:05;;;;;;;25.27;16.20;;;14.40;98.30;;;;;;5092819;28;20044;-67
2021/06/30 04:36:30;;;;;;;29.47;16.43;;;14.50;98.30;;;;;;5093156;28;20096;-67
2021/06/30 04:38:56;;;;;;;29.80;16.90;;;14.50;98.30;;;;;;5093460;28;20134;-68
2021/06/30 04:41:22;;;;;;;25.40;16.40;;;14.50;98.40;;;;;;5092225;28;20051;-68
2021/06/30 04:43:47;;;;;;;26.63;15.00;;;14.50;98.30;;;;;;5093226;28;20058;-67
2021/06/30 04:46:13;;;;;;;29.33;15.33;;;14.60;98.30;;;;;;5092565;28;20051;-67
2021/06/30 04:48:39;;;;;;;30.53;16.47;;;14.50;98.20;;;;;;5092436;28;20076;-67
2021/06/30 04:51:05;;;;;;;26.97;15.40;;;14.60;98.20;;;;;;5093367;28;20051;-67
2021/06/30 04:53:31;;;;;;;25.40;16.03;;;14.60;98.10;;;;;;5092881;28;20047;-67
2021/06/30 04:55:58;;;;;;;26.07;14.73;;;14.60;98.10;;;;;;5092512;28;20052;-67
2021/06/30 04:58:25;;;;;;;22.67;14.97;;;14.70;98.10;;;;;;5092822;28;20077;-67
2021/06/30 05:00:55;;;;;;;30.30;14.73;;;14.70;98.10;;;;;;5092830;28;20157;-69
2021/06/30 05:03:26;;;;;;;25.33;14.63;;;14.70;98.10;;;;;;5091837;28;20462;-67
2021/06/30 05:05:53;;;;;;;27.33;15.50;;;14.70;98.00;;;;;;5092657;28;20044;-67
2021/06/30 05:08:19;;;;;;;25.23;15.57;;;14.70;98.00;;;;;;5092760;28;20105;-67
2021/06/30 05:10:45;;;;;;;26.83;15.03;;;14.70;98.00;;;;;;5092251;28;20124;-67
2021/06/30 05:13:10;;;;;;;23.17;14.80;;;14.70;98.00;;;;;;5092351;28;20048;-68
2021/06/30 05:15:36;;;;;;;31.37;15.80;;;14.70;97.90;;;;;;5092671;28;20127;-67
2021/06/30 05:18:02;;;;;;;22.17;15.20;;;14.70;97.90;;;;;;5092091;28;20048;-68
2021/06/30 05:20:27;;;;;;;24.17;14.73;;;14.70;97.90;;;;;;5092415;28;20377;-68
2021/06/30 05:22:53;;;;;;;26.93;15.17;;;14.70;97.90;;;;;;5092486;28;20143;-68
2021/06/30 05:25:19;;;;;;;23.03;14.60;;;14.70;97.90;;;;;;5091171;28;20206;-68
2021/06/30 05:27:45;;;;;;;27.37;14.27;;;14.60;97.90;;;;;;5092259;28;20147;-68
2021/06/30 05:30:11;;;;;;;21.80;14.20;;;14.60;97.90;;;;;;5092290;28;20089;-68
2021/06/30 05:32:36;;;;;;;26.33;15.33;;;14.60;97.90;;;;;;5091855;28;20044;-68
2021/06/30 05:35:02;;;;;;;28.47;15.67;;;14.60;97.90;;;;;;5092667;28;20048;-68
2021/06/30 05:37:28;;;;;;;22.27;14.23;;;14.70;97.90;;;;;;5091257;28;20659;-69
2021/06/30 05:39:53;;;;;;;20.03;13.93;;;14.70;97.90;;;;;;5092051;28;20484;-68
2021/06/30 05:42:19;;;;;;;27.83;14.97;;;14.70;97.80;;;;;;5091853;28;20051;-68
2021/06/30 05:44:45;;;;;;;33.23;14.27;;;14.70;97.80;;;;;;5091499;28;20044;-68
2021/06/30 05:47:10;;;;;;;28.30;14.17;;;14.70;97.90;;;;;;5091723;28;20052;-68
2021/06/30 05:49:36;;;;;;;25.73;13.87;;;14.70;97.80;;;;;;5091539;28;20047;-69
2021/06/30 05:52:02;;;;;;;28.07;14.37;;;14.70;97.80;;;;;;5090908;28;20062;-68
2021/06/30 05:54:28;;;;;;;22.67;14.60;;;14.70;97.70;;;;;;5088810;28;20060;-68
2021/06/30 05:56:53;;;;;;;24.60;13.67;;;14.70;97.70;;;;;;5091276;28;20072;-68
2021/06/30 05:59:19;;;;;;;26.60;14.47;;;14.70;97.60;;;;;;5090500;28;20443;-68
2021/06/30 06:01:45;;;;;;;28.87;14.93;;;14.70;97.70;;;;;;5091232;28;20090;-68
2021/06/30 06:04:11;;;;;;;31.17;15.37;;;14.80;97.60;;;;;;5091300;28;20048;-68
2021/06/30 06:06:36;;;;;;;27.30;15.17;;;14.70;97.60;;;;;;5090331;28;20071;-68
2021/06/30 06:09:02;;;;;;;27.57;16.10;;;14.70;97.60;;;;;;5091387;28;20454;-68
2021/06/30 06:11:28;;;;;;;23.83;15.23;;;14.80;97.70;;;;;;5090824;28;20052;-68
2021/06/30 06:13:54;;;;;;;28.17;14.60;;;14.80;97.60;;;;;;5090644;28;20145;-68
2021/06/30 06:16:21;;;;;;;28.30;15.43;;;14.80;97.60;;;;;;5090769;28;20044;-68
2021/06/30 06:18:48;;;;;;;27.63;15.50;;;14.80;97.50;;;;;;5091186;28;20044;-68
2021/06/30 06:21:16;;;;;;;26.97;14.47;;;14.80;97.50;;;;;;5090255;28;20048;-68
2021/06/30 06:23:42;;;;;;;27.23;16.00;;;14.90;97.50;;;;;;5091055;28;20048;-68
2021/06/30 06:26:09;;;;;;;27.73;14.37;;;14.90;97.50;;;;;;5088106;28;20098;-67
2021/06/30 06:28:35;;;;;;;25.77;14.23;;;14.80;97.50;;;;;;5090420;28;20127;-68
2021/06/30 06:31:03;;;;;;;25.53;14.30;;;14.90;97.50;;;;;;5090995;28;20048;-68
2021/06/30 06:33:29;;;;;;;26.57;14.50;;;14.90;97.40;;;;;;5088236;28;20335;-68
2021/06/30 06:35:55;;;;;;;21.37;13.23;;;14.90;97.30;;;;;;5092646;28;20047;-68
2021/06/30 06:38:23;;;;;;;23.70;14.37;;;14.90;97.30;;;;;;5094572;28;20060;-68
2021/06/30 06:40:49;;;;;;;23.97;14.20;;;14.90;97.20;;;;;;5093966;28;20120;-67
2021/06/30 06:43:15;;;;;;;23.73;13.27;;;14.90;97.30;;;;;;5092036;28;20114;-68
2021/06/30 06:45:41;;;;;;;20.90;12.10;;;14.90;97.30;;;;;;5094496;28;20111;-68
2021/06/30 06:48:07;;;;;;;27.03;13.37;;;15.00;97.70;;;;;;5094230;28;20051;-68
2021/06/30 06:50:33;;;;;;;30.77;13.87;;;15.00;97.20;;;;;;5094236;28;20040;-68
2021/06/30 06:52:59;;;;;;;25.03;12.53;;;15.00;97.20;;;;;;5094843;28;20086;-68
2021/06/30 06:55:24;;;;;;;23.30;12.17;;;15.00;97.20;;;;;;5093276;28;20468;-68
2021/06/30 06:57:50;;;;;;;19.53;10.67;;;15.10;97.20;;;;;;5094816;28;20132;-67
2021/06/30 07:00:17;;;;;;;23.50;11.97;;;15.10;97.10;;;;;;5094251;28;20487;-68
2021/06/30 07:02:43;;;;;;;22.27;11.07;;;15.10;97.10;;;;;;5093990;28;20059;-68
2021/06/30 07:05:09;;;;;;;26.40;10.57;;;15.20;97.00;;;;;;5094831;28;20044;-68
2021/06/30 07:07:41;;;;;;;18.20;10.77;;;15.10;96.80;;;;;;5094768;28;20063;-68
2021/06/30 07:10:09;;;;;;;23.23;12.23;;;15.20;96.80;;;;;;5094249;28;20048;-68
2021/06/30 07:12:34;;;;;;;25.70;10.80;;;15.20;96.80;;;;;;5095028;28;20052;-67
2021/06/30 07:15:03;;;;;;;20.03;10.77;;;15.20;96.70;;;;;;5094862;28;20498;-68
2021/06/30 07:17:29;;;;;;;22.00;11.73;;;15.30;96.70;;;;;;5094034;28;20052;-68
2021/06/30 07:19:55;;;;;;;23.77;11.57;;;15.30;96.60;;;;;;5094948;28;20435;-67
2021/06/30 07:22:21;;;;;;;18.30;10.67;;;15.30;96.50;;;;;;5094192;28;20060;-68
2021/06/30 07:24:47;;;;;;;20.57;10.90;;;15.30;96.40;;;;;;5093968;28;20078;-67
2021/06/30 07:27:13;;;;;;;22.90;11.77;;;15.20;96.80;;;;;;5093953;28;20059;-68
2021/06/30 07:29:39;;;;;;;22.57;12.07;;;15.20;96.30;;;;;;5094329;28;20055;-67
2021/06/30 07:32:05;;;;;;;27.50;14.10;;;15.20;96.40;;;;;;5093463;28;20096;-67
2021/06/30 07:34:31;;;;;;;19.83;12.30;;;15.10;96.50;;;;;;5093787;28;20408;-67
2021/06/30 07:36:58;;;;;;;23.87;12.77;;;15.10;96.50;;;;;;5093169;28;20055;-67
2021/06/30 07:39:24;;;;;;;27.53;12.37;;;15.10;96.50;;;;;;5093690;28;20048;-67
2021/06/30 07:41:51;;;;;;;26.60;13.93;;;15.00;96.60;;;;;;5094507;28;20131;-67
2021/06/30 07:44:17;;;;;;;27.13;14.20;;;15.10;96.70;;;;;;5093109;28;20047;-68
2021/06/30 07:46:42;;;;;;;28.53;13.70;;;15.10;96.80;;;;;;5093126;28;20055;-66
2021/06/30 07:49:08;;;;;;;26.20;13.40;;;15.00;96.70;;;;;;5094335;28;20048;-67
2021/06/30 07:51:34;;;;;;;19.33;12.17;;;15.00;96.80;;;;;;5092328;28;20044;-68
2021/06/30 07:54:00;;;;;;;24.33;13.63;;;15.00;96.80;;;;;;5093715;28;20128;-67
2021/06/30 07:56:36;;;;;;;23.50;12.57;;;15.00;96.80;;;;;;5093434;28;20072;-67
2021/06/30 07:59:06;;;;;;;28.63;12.90;;;14.90;96.80;;;;;;5090234;28;20492;-67
2021/06/30 08:01:32;;;;;;;20.37;11.20;;;14.90;96.90;;;;;;5093261;28;20044;-67
2021/06/30 08:03:59;;;;;;;22.27;11.67;;;14.90;96.90;;;;;;5093326;28;20499;-67
2021/06/30 08:06:25;;;;;;;17.33;10.77;;;14.80;96.80;;;;;;5092673;28;20492;-67
2021/06/30 08:08:51;;;;;;;19.33;11.53;;;14.80;96.90;;;;;;5093651;28;20051;-67
2021/06/30 08:11:18;;;;;;;20.60;12.03;;;14.80;96.90;;;;;;5093269;28;20077;-66
2021/06/30 08:13:44;;;;;;;19.07;12.90;;;14.80;97.00;;;;;;5092488;28;20083;-67
2021/06/30 08:16:10;;;;;;;26.13;13.03;;;14.80;97.10;;;;;;5093105;28;20128;-67
2021/06/30 08:18:35;;;;;;;21.13;12.97;;;14.80;97.20;;;;;;5093014;28;20131;-67
2021/06/30 08:21:01;;;;;;;25.27;13.30;;;14.80;97.30;;;;;;5092809;28;20044;-67
2021/06/30 08:23:27;;;;;;;27.33;14.37;;;14.90;97.40;;;;;;5092639;28;20051;-67
2021/06/30 08:25:53;;;;;;;24.13;14.37;;;14.80;97.30;;;;;;5093220;28;20079;-67
2021/06/30 08:28:23;;;;;;;25.67;13.77;;;14.80;97.40;;;;;;5091662;28;20052;-68
2021/06/30 08:30:52;;;;;;;24.37;11.97;;;14.80;97.40;;;;;;5093172;28;20101;-67
2021/06/30 08:33:18;;;;;;;18.00;12.00;;;14.80;97.40;;;;;;5091365;28;20157;-67
2021/06/30 08:35:44;;;;;;;18.00;13.03;;;14.80;97.40;;;;;;5092499;28;20059;-67
2021/06/30 08:38:10;;;;;;;20.40;12.83;;;14.70;97.40;;;;;;5092528;28;20051;-67
2021/06/30 08:40:37;;;;;;;17.70;12.20;;;14.70;97.50;;;;;;5092663;28;20077;-67
2021/06/30 08:43:07;;;;;;;20.07;12.83;;;14.80;97.50;;;;;;5093106;28;20044;-67
2021/06/30 08:45:33;;;;;;;18.17;12.90;;;14.80;97.50;;;;;;5092832;28;20055;-68
2021/06/30 08:48:01;;;;;;;20.33;11.40;;;14.80;97.50;;;;;;5091325;28;20040;-67
2021/06/30 08:50:27;;;;;;;17.17;11.80;;;14.80;97.50;;;;;;5092282;28;20119;-68
2021/06/30 08:52:54;;;;;;;20.33;11.57;;;14.90;97.50;;;;;;5092723;28;20135;-67
2021/06/30 08:55:21;;;;;;;15.70;10.93;;;14.90;97.40;;;;;;5092107;28;20435;-67
2021/06/30 08:57:48;;;;;;;23.03;12.93;;;14.90;97.30;;;;;;5092778;28;20130;-68
2021/06/30 09:00:15;;;;;;;16.70;11.37;;;15.00;97.50;;;;;;5091962;28;20055;-68
2021/06/30 09:02:46;;;;;;;22.20;12.90;;;15.00;97.20;;;;;;5091551;28;20044;-69
2021/06/30 09:05:37;;;;;;;18.38;11.98;;;15.00;97.30;;;;;;5089914;28;20040;-68
2021/06/30 09:08:01;;;;;;;26.47;11.63;;;15.00;97.30;;;;;;5091415;28;20048;-67
2021/06/30 09:10:33;;;;;;;18.33;11.53;;;14.90;97.30;;;;;;5090805;28;20036;-68
2021/06/30 09:13:01;;;;;;;15.10;9.53;;;15.00;97.30;;;;;;5092346;28;20125;-69
2021/06/30 09:15:30;;;;;;;15.47;9.47;;;15.00;97.20;;;;;;5091357;28;20047;-68
2021/06/30 09:18:17;;;;;;;16.33;9.40;;;15.00;97.00;;;;;;5092573;28;20048;-68
2021/06/30 09:20:43;;;;;;;16.60;10.17;;;15.00;96.80;;;;;;5092549;28;20448;-68
2021/06/30 09:23:08;;;;;;;14.90;11.07;;;15.10;96.90;;;;;;5091370;28;20138;-68
2021/06/30 09:25:40;;;;;;;14.83;11.30;;;15.10;97.00;;;;;;5092747;28;20044;-68
2021/06/30 09:28:24;;;;;;;17.40;11.63;;;15.20;97.10;;;;;;5092333;28;20473;-68
2021/06/30 09:31:02;;;;;;;15.53;10.07;;;15.30;97.00;;;;;;5092043;28;20055;-68
2021/06/30 09:33:51;;;;;;;14.70;8.80;;;15.30;96.80;;;;;;5092256;28;20075;-68
2021/06/30 09:36:18;;;;;;;14.07;10.63;;;15.40;96.20;;;;;;5092424;28;20047;-69
2021/06/30 09:38:44;;;;;;;16.90;10.67;;;15.40;96.30;;;;;;5091502;28;20062;-68
2021/06/30 09:41:27;;;;;;;16.83;10.83;;;15.30;96.30;;;;;;5091998;28;20076;-68
2021/06/30 09:44:13;;;;;;;14.83;10.57;;;15.30;96.10;;;;;;5091264;28;20044;-68
2021/06/30 09:46:42;;;;;;;16.10;11.17;;;15.30;96.00;;;;;;5091213;28;20269;-69
2021/06/30 09:49:19;;;;;;;17.00;11.47;;;15.30;96.10;;;;;;5092453;28;20123;-68
2021/06/30 09:51:47;;;;;;;16.33;12.10;;;15.30;96.20;;;;;;5091556;28;20044;-68
2021/06/30 09:54:15;;;;;;;25.50;13.00;;;15.30;96.10;;;;;;5091970;28;20051;-68
2021/06/30 09:56:55;;;;;;;17.43;11.07;;;15.20;96.10;;;;;;5091919;28;20048;-68
2021/06/30 09:59:33;;;;;;;12.97;9.80;;;15.20;96.00;;;;;;5091057;28;20162;-68
2021/06/30 10:02:09;;;;;;;19.07;11.93;;;15.20;95.90;;;;;;5092144;28;20329;-68
2021/06/30 10:04:39;;;;;;;18.37;11.77;;;15.20;95.90;;;;;;5091176;28;20082;-67
2021/06/30 10:07:12;;;;;;;22.02;11.82;;;15.10;95.90;;;;;;5091666;28;20073;-68
2021/06/30 10:09:40;;;;;;;18.77;12.60;;;15.10;96.00;;;;;;5092356;28;20048;-67
2021/06/30 10:12:12;;;;;;;22.03;13.80;;;15.10;96.20;;;;;;5095149;28;20044;-67
2021/06/30 10:14:40;;;;;;;17.73;13.10;;;15.10;96.30;;;;;;5095750;28;20097;-67
2021/06/30 10:17:10;;;;;;;21.40;12.13;;;15.10;96.40;;;;;;5095763;28;20040;-67
2021/06/30 10:19:37;;;;;;;16.63;10.00;;;15.10;96.80;;;;;;5094951;28;20134;-68
2021/06/30 10:22:05;;;;;;;20.50;10.17;;;15.10;96.30;;;;;;5096046;28;20047;-68
2021/06/30 10:24:30;;;;;;;16.80;10.70;;;15.10;96.20;;;;;;5096006;28;20055;-67
2021/06/30 10:26:57;;;;;;;19.17;11.83;;;15.10;96.20;;;;;;5093774;28;20061;-68
2021/06/30 10:29:26;;;;;;;21.83;11.53;;;15.10;96.30;;;;;;5095251;28;20436;-68
2021/06/30 10:31:57;;;;;;;14.97;10.90;;;15.10;96.30;;;;;;5095770;28;20050;-68
2021/06/30 10:34:40;;;;;;;13.52;11.18;;;15.10;96.40;;;;;;5094704;28;20067;-68
2021/06/30 10:37:29;;;;;;;17.87;12.53;;;15.10;96.20;;;;;;5095753;28;20069;-69
2021/06/30 10:39:57;;;;;;;18.37;11.33;;;15.20;96.30;;;;;;5094668;28;20454;-68
2021/06/30 10:42:46;;;;;;;15.93;12.60;;;15.10;96.30;;;;;;5095137;28;20491;-67
2021/06/30 10:45:14;;;;;;;15.53;11.37;;;15.10;96.40;;;;;;5095193;28;20048;-68
2021/06/30 10:47:55;;;;;;;17.23;11.93;;;15.20;96.50;;;;;;5094201;28;20074;-67
2021/06/30 10:50:24;;;;;;;15.37;11.70;;;15.20;96.50;;;;;;5094844;28;20571;-68
2021/06/30 10:52:51;;;;;;;20.03;12.50;;;15.20;96.50;;;;;;5095258;28;20044;-67
2021/06/30 10:58:16;;;;;;;16.80;11.40;;;15.20;96.60;;;;;;5095368;28;20048;-68
2021/06/30 11:01:09;;;;;;;16.20;11.50;;;15.20;96.60;;;;;;5094832;28;20059;-68
2021/06/30 11:03:44;;;;;;;17.73;11.53;;;15.10;96.60;;;;;;5095160;28;20055;-68
2021/06/30 11:06:12;;;;;;;17.63;11.50;;;15.10;96.70;;;;;;5094849;28;20048;-68
2021/06/30 11:08:43;;;;;;;14.67;10.77;;;15.10;96.70;;;;;;5094214;28;20526;-67
2021/06/30 11:11:31;;;;;;;16.97;12.30;;;15.20;96.80;;;;;;5094949;28;20127;-68
2021/06/30 11:14:08;;;;;;;17.13;11.07;;;15.20;96.80;;;;;;5087416;28;20404;-68
2021/06/30 11:16:40;;;;;;;14.70;10.37;;;15.20;96.80;;;;;;5093995;28;20089;-68
2021/06/30 11:19:26;;;;;;;14.23;11.63;;;15.20;96.90;;;;;;5094700;28;20048;-68
2021/06/30 11:21:59;;;;;;;19.30;12.47;;;15.20;96.80;;;;;;5093098;28;20468;-68
2021/06/30 11:24:40;;;;;;;16.37;10.80;;;15.20;96.80;;;;;;5094394;28;20052;-68
2021/06/30 11:27:06;;;;;;;18.25;11.35;;;15.20;96.80;;;;;;5094298;28;20067;-68
2021/06/30 11:29:44;;;;;;;16.20;10.67;;;15.20;96.70;;;;;;5092968;28;20056;-68
2021/06/30 11:34:58;;;;;;;15.47;10.50;;;15.00;96.50;;;;;;5094379;28;20044;-68
2021/06/30 11:37:24;;;;;;;18.90;11.80;;;14.90;96.50;;;;;;5093294;28;20048;-67
2021/06/30 11:39:50;;;;;;;18.37;11.57;;;14.80;96.60;;;;;;5094476;28;20048;-68
2021/06/30 11:42:32;;;;;;;13.37;10.80;;;14.80;96.80;;;;;;5093930;28;20040;-68
2021/06/30 11:44:57;;;;;;;54.35;25.52;;;14.70;96.70;;;;;;5093392;28;20044;-68
2021/06/30 11:47:23;;;;;;;50.63;23.10;;;14.70;96.80;;;;;;5094144;28;20044;-68
2021/06/30 11:49:50;;;;;;;32.67;18.90;;;14.60;96.90;;;;;;5094516;28;20565;-68
2021/06/30 11:52:15;;;;;;;24.17;14.80;;;14.60;97.00;;;;;;5092787;28;20048;-67
2021/06/30 11:54:41;;;;;;;18.03;11.80;;;14.60;97.10;;;;;;5094201;28;20500;-67
2021/06/30 11:57:07;;;;;;;19.10;11.73;;;14.60;97.20;;;;;;5093358;28;20044;-67
2021/06/30 11:59:36;;;;;;;16.00;10.27;;;14.60;97.20;;;;;;5093712;28;20052;-68
2021/06/30 12:02:02;;;;;;;19.50;12.27;;;14.60;97.10;;;;;;5094732;28;20055;-67
2021/06/30 12:04:28;;;;;;;17.43;11.60;;;14.60;97.60;;;;;;5093138;28;20056;-68
2021/06/30 12:06:59;;;;;;;20.83;12.00;;;14.60;97.10;;;;;;5093895;28;20097;-68
2021/06/30 12:09:42;;;;;;;21.05;12.90;;;14.60;97.00;;;;;;5093660;28;20101;-68
2021/06/30 12:12:10;;;;;;;19.87;12.33;;;14.50;97.00;;;;;;5093054;28;20159;-68
2021/06/30 12:14:42;;;;;;;25.73;14.37;;;14.50;97.10;;;;;;5093958;28;20044;-68
2021/06/30 12:17:10;;;;;;;25.90;16.00;;;14.40;97.10;;;;;;5093618;28;20097;-67
2021/06/30 12:19:47;;;;;;;29.37;17.43;;;14.40;97.10;;;;;;5093157;28;20131;-68
2021/06/30 12:22:17;;;;;;;16.33;11.13;;;14.40;97.10;;;;;;5093562;28;20044;-67
2021/06/30 12:24:43;;;;;;;18.63;13.97;;;14.30;97.20;;;;;;5093380;28;20480;-68
2021/06/30 12:27:10;;;;;;;14.73;11.17;;;14.30;97.30;;;;;;5092532;28;20094;-68
2021/06/30 12:29:38;;;;;;;12.57;10.17;;;14.30;97.40;;;;;;5093326;28;20048;-68
2021/06/30 12:32:09;;;;;;;13.17;9.13;;;14.40;97.50;;;;;;5093512;28;20076;-68
2021/06/30 12:34:35;;;;;;;10.00;8.13;;;14.40;97.50;;;;;;5092606;28;20126;-69
2021/06/30 12:37:01;;;;;;;13.57;8.33;;;14.40;97.40;;;;;;5093360;28;20055;-68
2021/06/30 12:39:29;;;;;;;13.67;8.23;;;14.40;97.30;;;;;;5092488;28;20044;-68